Edinburgh Airport, United Kingdom

1:50 AM GMT on November 28, 2014 (GMT +0000)
Edinburgh Airport | Change Station
CLOSE
Current Station
Airport
Location: Edinburgh Airport,
Elevation: 135 ft
Nearby Weather Stations

Elev 135 ft 55.95 °N, 3.35 °W | Updated 30 minutes ago

Mostly Cloudy
Mostly Cloudy
45 °F
Feels Like 45 °F
N
2
Wind Variable Wind from Variable

Today
High -- | Low -- °F
--% Chance of Precip.
Yesterday
High -- | Low -- °F
Precip. -- in
8:14 AM 3:47 PM
Waxing Crescent, 35% visible
Pressure 29.65 in
Visibility 5.0 miles
Clouds Scattered Clouds 1100 ft
Scattered Clouds 1600 ft
Mostly Cloudy 2800 ft
Dew Point 45 °F
Humidity 100%
Rainfall 0.00 in
Snow Depth Not available.
UV 0 out of 12
Pollen Not available.
Air Quality Not available.
Flu Activity Not available.
METAR EGPH 280120Z VRB02KT 8000 SCT011 SCT016 BKN028 07/07 Q1004

More Conditions Fewer Conditions

Pressure 29.65 in
Visibility 5.0 miles
Clouds Scattered Clouds 1100 ft
Scattered Clouds 1600 ft
Mostly Cloudy 2800 ft
Dew Point 45 °F
Humidity 100%
Rainfall 0.00 in
Snow Depth Not available.
UV 0 out of 12
Pollen Not available.
Air Quality Not available.
Flu Activity Not available.
METAR EGPH 280120Z VRB02KT 8000 SCT011 SCT016 BKN028 07/07 Q1004

More Conditions Fewer Conditions

10-Day Weather Forecast

Almanac

Astronomy

Nov. 28, 2014 Rise Set
Actual Time
Civil Twilight
Nautical Twilight
Astronomical Twilight
Moon
Length of Visible Light
Length of Day
Tomorrow will be .
, % of the Moon is Illuminated

Today's Extremes

Country Highs Country Lows

Community

WunderPhotos

Upload Photos

1,774,151 photos uploaded!

WunderBlogs® & News

Nearby

Air Quality

  Air Quality AQ Index Pollutant
Not available.

Snow Depth

Station Depth Elevation

Earthquake Activity

City Distance Mag. Time & Date
Minimum magnitude displayed is 2.5.

Coastal Water Temperatures

Place Temperature

Nearby Weather Stations